Stringtown, Iowa
Current Conditions -  °F | °C
As of 3:35 AM on Sunday 23 Nov 2014 (Local Time) from KCSQ Reporting Station
Haze Haze  
Wind Chill: 52°   Ceiling: 400
Heat Index: 52°   Visibility: 4mi
Dew Point: 52°   Wind: 14mph
Humidity: 100%   Direction: 180°S
Pressure: 29.56"   Gusts: 21mph
Location:  40.8856°N, 94.5654°W
Report Text: KCSQ 230935Z AUTO 18012G18KT 4SM BR OVC004 11/11 A2956 RMK AO2
Loading
Personal Weather Stations






























Interactive Weather Map New forecast layout! Learn more

10-Day Weather Forecast

Advertisements
Track Severe Weather on mobile